sensor_id;sensor_type;location;lat;lon;timestamp;temperature;humidity
48648;DHT22;34437;-33.956;151.076;2023-05-02T00:00:25;18.50;62.10
48648;DHT22;34437;-33.956;151.076;2023-05-02T00:02:48;18.50;62.20
48648;DHT22;34437;-33.956;151.076;2023-05-02T00:05:11;18.50;62.50
48648;DHT22;34437;-33.956;151.076;2023-05-02T00:07:33;18.40;62.80
48648;DHT22;34437;-33.956;151.076;2023-05-02T00:09:57;18.50;63.00
48648;DHT22;34437;-33.956;151.076;2023-05-02T00:12:19;18.50;63.10
48648;DHT22;34437;-33.956;151.076;2023-05-02T00:14:42;18.50;63.30
48648;DHT22;34437;-33.956;151.076;2023-05-02T00:17:04;18.50;63.30
48648;DHT22;34437;-33.956;151.076;2023-05-02T00:19:26;18.50;63.30
48648;DHT22;34437;-33.956;151.076;2023-05-02T00:21:49;18.50;63.30
48648;DHT22;34437;-33.956;151.076;2023-05-02T00:24:11;18.50;63.30
48648;DHT22;34437;-33.956;151.076;2023-05-02T00:26:33;18.60;63.40
48648;DHT22;34437;-33.956;151.076;2023-05-02T00:28:57;18.60;63.30
48648;DHT22;34437;-33.956;151.076;2023-05-02T00:31:19;18.60;63.50
48648;DHT22;34437;-33.956;151.076;2023-05-02T00:33:42;18.60;63.30
48648;DHT22;34437;-33.956;151.076;2023-05-02T00:36:11;18.70;63.10
48648;DHT22;34437;-33.956;151.076;2023-05-02T00:38:34;18.70;62.80
48648;DHT22;34437;-33.956;151.076;2023-05-02T00:40:56;18.70;62.50
48648;DHT22;34437;-33.956;151.076;2023-05-02T00:43:19;18.70;62.30
48648;DHT22;34437;-33.956;151.076;2023-05-02T00:45:42;18.70;62.10
48648;DHT22;34437;-33.956;151.076;2023-05-02T00:48:06;18.70;61.90
48648;DHT22;34437;-33.956;151.076;2023-05-02T00:50:30;18.70;61.70
48648;DHT22;34437;-33.956;151.076;2023-05-02T00:52:54;18.70;62.20
48648;DHT22;34437;-33.956;151.076;2023-05-02T00:55:17;18.70;61.50
48648;DHT22;34437;-33.956;151.076;2023-05-02T00:57:40;18.70;61.40
48648;DHT22;34437;-33.956;151.076;2023-05-02T01:00:02;18.70;61.30
48648;DHT22;34437;-33.956;151.076;2023-05-02T01:02:47;18.70;61.20
48648;DHT22;34437;-33.956;151.076;2023-05-02T01:05:19;18.70;61.10
48648;DHT22;34437;-33.956;151.076;2023-05-02T01:07:56;18.70;61.00
48648;DHT22;34437;-33.956;151.076;2023-05-02T01:13:21;18.80;60.90
48648;DHT22;34437;-33.956;151.076;2023-05-02T01:15:45;18.80;60.90
48648;DHT22;34437;-33.956;151.076;2023-05-02T01:18:10;18.80;60.80
48648;DHT22;34437;-33.956;151.076;2023-05-02T01:20:36;18.80;60.70
48648;DHT22;34437;-33.956;151.076;2023-05-02T01:23:05;18.80;60.90
48648;DHT22;34437;-33.956;151.076;2023-05-02T01:30:49;18.90;61.70
48648;DHT22;34437;-33.956;151.076;2023-05-02T01:33:12;19.00;61.70
48648;DHT22;34437;-33.956;151.076;2023-05-02T01:35:37;19.00;61.80
48648;DHT22;34437;-33.956;151.076;2023-05-02T01:38:00;19.10;61.70
48648;DHT22;34437;-33.956;151.076;2023-05-02T01:40:24;19.10;61.60
48648;DHT22;34437;-33.956;151.076;2023-05-02T01:42:49;19.20;61.80
48648;DHT22;34437;-33.956;151.076;2023-05-02T01:45:12;19.20;61.90
48648;DHT22;34437;-33.956;151.076;2023-05-02T01:47:36;19.20;62.10
48648;DHT22;34437;-33.956;151.076;2023-05-02T01:49:59;19.30;62.10
48648;DHT22;34437;-33.956;151.076;2023-05-02T01:52:23;19.30;61.90
48648;DHT22;34437;-33.956;151.076;2023-05-02T01:54:46;19.30;61.70
48648;DHT22;34437;-33.956;151.076;2023-05-02T01:57:11;19.30;61.70
48648;DHT22;34437;-33.956;151.076;2023-05-02T01:59:34;19.40;61.70
48648;DHT22;34437;-33.956;151.076;2023-05-02T02:02:00;19.40;61.80
48648;DHT22;34437;-33.956;151.076;2023-05-02T02:04:23;19.40;61.70
48648;DHT22;34437;-33.956;151.076;2023-05-02T02:06:51;19.50;61.70
48648;DHT22;34437;-33.956;151.076;2023-05-02T02:09:14;19.50;62.00
48648;DHT22;34437;-33.956;151.076;2023-05-02T02:11:45;19.60;62.20
48648;DHT22;34437;-33.956;151.076;2023-05-02T02:14:21;19.60;61.40
48648;DHT22;34437;-33.956;151.076;2023-05-02T02:16:46;19.60;62.20
48648;DHT22;34437;-33.956;151.076;2023-05-02T02:19:12;19.70;61.40
48648;DHT22;34437;-33.956;151.076;2023-05-02T02:21:36;19.70;60.80
48648;DHT22;34437;-33.956;151.076;2023-05-02T02:24:01;19.70;60.70
48648;DHT22;34437;-33.956;151.076;2023-05-02T02:26:25;19.70;60.90
48648;DHT22;34437;-33.956;151.076;2023-05-02T02:28:47;19.80;60.90
48648;DHT22;34437;-33.956;151.076;2023-05-02T02:31:10;19.70;60.40
48648;DHT22;34437;-33.956;151.076;2023-05-02T02:33:32;19.70;59.90
48648;DHT22;34437;-33.956;151.076;2023-05-02T02:36:02;19.70;59.80
48648;DHT22;34437;-33.956;151.076;2023-05-02T02:38:41;19.70;59.80
48648;DHT22;34437;-33.956;151.076;2023-05-02T02:41:31;19.70;59.90
48648;DHT22;34437;-33.956;151.076;2023-05-02T02:44:27;19.70;59.90
48648;DHT22;34437;-33.956;151.076;2023-05-02T02:47:10;19.70;59.80
48648;DHT22;34437;-33.956;151.076;2023-05-02T02:52:32;19.80;59.70
48648;DHT22;34437;-33.956;151.076;2023-05-02T03:00:27;19.90;59.50
48648;DHT22;34437;-33.956;151.076;2023-05-02T03:02:51;19.90;59.40
48648;DHT22;34437;-33.956;151.076;2023-05-02T03:05:15;20.00;59.60
48648;DHT22;34437;-33.956;151.076;2023-05-02T03:07:39;20.00;59.80
48648;DHT22;34437;-33.956;151.076;2023-05-02T03:10:03;20.00;60.00
48648;DHT22;34437;-33.956;151.076;2023-05-02T03:12:26;20.10;60.10
48648;DHT22;34437;-33.956;151.076;2023-05-02T03:14:49;20.10;60.00
48648;DHT22;34437;-33.956;151.076;2023-05-02T03:17:12;20.20;60.10
48648;DHT22;34437;-33.956;151.076;2023-05-02T03:19:34;20.20;60.30
48648;DHT22;34437;-33.956;151.076;2023-05-02T03:21:57;20.20;60.20
48648;DHT22;34437;-33.956;151.076;2023-05-02T03:24:20;20.30;60.20
48648;DHT22;34437;-33.956;151.076;2023-05-02T03:26:42;20.30;60.30
48648;DHT22;34437;-33.956;151.076;2023-05-02T03:29:05;20.40;60.30
48648;DHT22;34437;-33.956;151.076;2023-05-02T03:31:27;20.40;60.10
48648;DHT22;34437;-33.956;151.076;2023-05-02T03:33:50;20.50;60.00
48648;DHT22;34437;-33.956;151.076;2023-05-02T03:36:12;20.60;60.10
48648;DHT22;34437;-33.956;151.076;2023-05-02T03:38:34;20.60;59.90
48648;DHT22;34437;-33.956;151.076;2023-05-02T03:40:57;20.70;59.90
48648;DHT22;34437;-33.956;151.076;2023-05-02T03:43:19;20.80;59.80
48648;DHT22;34437;-33.956;151.076;2023-05-02T03:45:42;20.80;59.80
48648;DHT22;34437;-33.956;151.076;2023-05-02T03:48:04;20.90;59.50
48648;DHT22;34437;-33.956;151.076;2023-05-02T03:50:27;20.90;59.20
48648;DHT22;34437;-33.956;151.076;2023-05-02T03:52:49;21.00;59.30
48648;DHT22;34437;-33.956;151.076;2023-05-02T03:55:11;21.00;59.30
48648;DHT22;34437;-33.956;151.076;2023-05-02T03:57:34;21.10;59.30
48648;DHT22;34437;-33.956;151.076;2023-05-02T03:59:56;21.20;59.30
48648;DHT22;34437;-33.956;151.076;2023-05-02T04:02:19;21.30;58.70
48648;DHT22;34437;-33.956;151.076;2023-05-02T04:04:41;21.30;58.90
48648;DHT22;34437;-33.956;151.076;2023-05-02T04:07:04;21.40;58.80
48648;DHT22;34437;-33.956;151.076;2023-05-02T04:09:28;21.50;58.70
48648;DHT22;34437;-33.956;151.076;2023-05-02T04:11:51;21.60;58.60
48648;DHT22;34437;-33.956;151.076;2023-05-02T04:14:13;21.70;58.60
48648;DHT22;34437;-33.956;151.076;2023-05-02T04:16:36;21.70;58.40
48648;DHT22;34437;-33.956;151.076;2023-05-02T04:18:58;21.80;58.40
48648;DHT22;34437;-33.956;151.076;2023-05-02T04:21:21;21.90;58.20
48648;DHT22;34437;-33.956;151.076;2023-05-02T04:23:44;21.90;57.20
48648;DHT22;34437;-33.956;151.076;2023-05-02T04:26:06;21.90;57.40
48648;DHT22;34437;-33.956;151.076;2023-05-02T04:28:29;21.90;57.50
48648;DHT22;34437;-33.956;151.076;2023-05-02T04:30:51;22.00;57.60
48648;DHT22;34437;-33.956;151.076;2023-05-02T04:33:14;22.10;57.70
48648;DHT22;34437;-33.956;151.076;2023-05-02T04:35:39;22.20;57.60
48648;DHT22;34437;-33.956;151.076;2023-05-02T04:38:01;22.20;57.50
48648;DHT22;34437;-33.956;151.076;2023-05-02T04:40:24;22.30;57.50
48648;DHT22;34437;-33.956;151.076;2023-05-02T04:42:46;22.40;57.50
48648;DHT22;34437;-33.956;151.076;2023-05-02T04:45:09;22.50;57.30
48648;DHT22;34437;-33.956;151.076;2023-05-02T04:47:31;22.60;57.20
48648;DHT22;34437;-33.956;151.076;2023-05-02T04:49:54;22.70;57.00
48648;DHT22;34437;-33.956;151.076;2023-05-02T04:52:16;22.80;56.80
48648;DHT22;34437;-33.956;151.076;2023-05-02T04:54:39;22.90;57.30
48648;DHT22;34437;-33.956;151.076;2023-05-02T04:57:02;22.90;56.50
48648;DHT22;34437;-33.956;151.076;2023-05-02T04:59:27;22.90;56.50
48648;DHT22;34437;-33.956;151.076;2023-05-02T05:01:49;22.90;56.50
48648;DHT22;34437;-33.956;151.076;2023-05-02T05:04:12;22.90;56.50
48648;DHT22;34437;-33.956;151.076;2023-05-02T05:06:34;22.90;56.70
48648;DHT22;34437;-33.956;151.076;2023-05-02T05:08:57;22.90;56.80
48648;DHT22;34437;-33.956;151.076;2023-05-02T05:11:19;22.90;56.80
48648;DHT22;34437;-33.956;151.076;2023-05-02T05:13:43;22.90;56.80
48648;DHT22;34437;-33.956;151.076;2023-05-02T05:16:05;23.00;56.70
48648;DHT22;34437;-33.956;151.076;2023-05-02T05:18:28;23.00;56.60
48648;DHT22;34437;-33.956;151.076;2023-05-02T05:20:50;23.10;56.60
48648;DHT22;34437;-33.956;151.076;2023-05-02T05:23:13;23.10;56.60
48648;DHT22;34437;-33.956;151.076;2023-05-02T05:25:35;23.10;56.60
48648;DHT22;34437;-33.956;151.076;2023-05-02T05:27:59;23.10;56.70
48648;DHT22;34437;-33.956;151.076;2023-05-02T05:30:21;23.10;56.70
48648;DHT22;34437;-33.956;151.076;2023-05-02T05:32:43;23.00;56.80
48648;DHT22;34437;-33.956;151.076;2023-05-02T05:35:06;23.00;56.90
48648;DHT22;34437;-33.956;151.076;2023-05-02T05:37:28;22.90;57.00
48648;DHT22;34437;-33.956;151.076;2023-05-02T05:39:51;22.90;57.00
48648;DHT22;34437;-33.956;151.076;2023-05-02T05:42:13;22.90;57.20
48648;DHT22;34437;-33.956;151.076;2023-05-02T05:44:36;22.80;56.90
48648;DHT22;34437;-33.956;151.076;2023-05-02T05:46:58;22.80;56.50
48648;DHT22;34437;-33.956;151.076;2023-05-02T05:49:21;22.80;55.60
48648;DHT22;34437;-33.956;151.076;2023-05-02T05:51:44;22.70;55.40
48648;DHT22;34437;-33.956;151.076;2023-05-02T05:54:08;22.80;55.50
48648;DHT22;34437;-33.956;151.076;2023-05-02T05:56:30;22.70;55.40
48648;DHT22;34437;-33.956;151.076;2023-05-02T05:58:53;22.70;55.30
48648;DHT22;34437;-33.956;151.076;2023-05-02T06:01:15;22.70;55.20
48648;DHT22;34437;-33.956;151.076;2023-05-02T06:03:38;22.60;55.30
48648;DHT22;34437;-33.956;151.076;2023-05-02T06:06:00;22.60;55.50
48648;DHT22;34437;-33.956;151.076;2023-05-02T06:08:23;22.60;55.60
48648;DHT22;34437;-33.956;151.076;2023-05-02T06:10:45;22.50;55.70
48648;DHT22;34437;-33.956;151.076;2023-05-02T06:13:07;22.50;56.30
48648;DHT22;34437;-33.956;151.076;2023-05-02T06:15:33;22.40;56.00
48648;DHT22;34437;-33.956;151.076;2023-05-02T06:17:58;22.40;56.00
48648;DHT22;34437;-33.956;151.076;2023-05-02T06:20:21;22.40;55.90
48648;DHT22;34437;-33.956;151.076;2023-05-02T06:22:43;22.40;55.90
48648;DHT22;34437;-33.956;151.076;2023-05-02T06:25:06;22.40;55.90
48648;DHT22;34437;-33.956;151.076;2023-05-02T06:27:29;22.40;56.00
48648;DHT22;34437;-33.956;151.076;2023-05-02T06:29:52;22.40;56.10
48648;DHT22;34437;-33.956;151.076;2023-05-02T06:32:15;22.30;56.20
48648;DHT22;34437;-33.956;151.076;2023-05-02T06:34:37;22.30;56.10
48648;DHT22;34437;-33.956;151.076;2023-05-02T06:37:00;22.30;56.10
48648;DHT22;34437;-33.956;151.076;2023-05-02T06:39:22;22.30;56.10
48648;DHT22;34437;-33.956;151.076;2023-05-02T06:41:44;22.30;56.20
48648;DHT22;34437;-33.956;151.076;2023-05-02T06:44:07;22.30;56.20
48648;DHT22;34437;-33.956;151.076;2023-05-02T06:46:29;22.30;56.20
48648;DHT22;34437;-33.956;151.076;2023-05-02T06:48:52;22.30;56.20
48648;DHT22;34437;-33.956;151.076;2023-05-02T06:51:14;22.30;56.50
48648;DHT22;34437;-33.956;151.076;2023-05-02T06:53:37;22.30;56.40
48648;DHT22;34437;-33.956;151.076;2023-05-02T06:55:59;22.30;56.20
48648;DHT22;34437;-33.956;151.076;2023-05-02T06:58:22;22.30;57.00
48648;DHT22;34437;-33.956;151.076;2023-05-02T07:00:45;22.40;56.50
48648;DHT22;34437;-33.956;151.076;2023-05-02T07:03:09;22.30;56.50
48648;DHT22;34437;-33.956;151.076;2023-05-02T07:05:32;22.30;56.60
48648;DHT22;34437;-33.956;151.076;2023-05-02T07:07:54;22.30;56.60
48648;DHT22;34437;-33.956;151.076;2023-05-02T07:10:17;22.30;56.60
48648;DHT22;34437;-33.956;151.076;2023-05-02T07:12:39;22.30;56.70
48648;DHT22;34437;-33.956;151.076;2023-05-02T07:15:02;22.30;56.90
48648;DHT22;34437;-33.956;151.076;2023-05-02T07:17:24;22.30;57.00
48648;DHT22;34437;-33.956;151.076;2023-05-02T07:19:47;22.30;56.90
48648;DHT22;34437;-33.956;151.076;2023-05-02T07:22:09;22.20;56.80
48648;DHT22;34437;-33.956;151.076;2023-05-02T07:24:31;22.30;56.90
48648;DHT22;34437;-33.956;151.076;2023-05-02T07:26:54;22.20;56.90
48648;DHT22;34437;-33.956;151.076;2023-05-02T07:29:16;22.30;56.90
48648;DHT22;34437;-33.956;151.076;2023-05-02T07:31:38;22.20;57.20
48648;DHT22;34437;-33.956;151.076;2023-05-02T07:34:01;22.20;57.30
48648;DHT22;34437;-33.956;151.076;2023-05-02T07:36:23;22.20;57.30
48648;DHT22;34437;-33.956;151.076;2023-05-02T07:38:46;22.20;57.30
48648;DHT22;34437;-33.956;151.076;2023-05-02T07:41:08;22.20;57.50
48648;DHT22;34437;-33.956;151.076;2023-05-02T07:43:30;22.20;57.50
48648;DHT22;34437;-33.956;151.076;2023-05-02T07:45:53;22.20;58.30
48648;DHT22;34437;-33.956;151.076;2023-05-02T07:48:15;22.20;58.00
48648;DHT22;34437;-33.956;151.076;2023-05-02T07:50:38;22.20;58.00
48648;DHT22;34437;-33.956;151.076;2023-05-02T07:53:00;22.10;58.00
48648;DHT22;34437;-33.956;151.076;2023-05-02T07:55:23;22.20;58.00
48648;DHT22;34437;-33.956;151.076;2023-05-02T07:57:48;22.20;58.20
48648;DHT22;34437;-33.956;151.076;2023-05-02T08:00:11;22.20;58.40
48648;DHT22;34437;-33.956;151.076;2023-05-02T08:02:33;22.20;58.80
48648;DHT22;34437;-33.956;151.076;2023-05-02T08:04:57;22.10;59.00
48648;DHT22;34437;-33.956;151.076;2023-05-02T08:07:19;22.10;59.50
48648;DHT22;34437;-33.956;151.076;2023-05-02T08:09:42;22.10;59.40
48648;DHT22;34437;-33.956;151.076;2023-05-02T08:12:04;22.10;59.70
48648;DHT22;34437;-33.956;151.076;2023-05-02T08:14:27;22.10;60.10
48648;DHT22;34437;-33.956;151.076;2023-05-02T08:16:49;22.10;60.00
48648;DHT22;34437;-33.956;151.076;2023-05-02T08:19:12;22.10;59.90
48648;DHT22;34437;-33.956;151.076;2023-05-02T08:21:35;22.10;59.70
48648;DHT22;34437;-33.956;151.076;2023-05-02T08:24:00;22.10;59.60
48648;DHT22;34437;-33.956;151.076;2023-05-02T08:26:23;22.10;59.40
48648;DHT22;34437;-33.956;151.076;2023-05-02T08:28:45;22.10;59.40
48648;DHT22;34437;-33.956;151.076;2023-05-02T08:31:08;22.10;59.10
48648;DHT22;34437;-33.956;151.076;2023-05-02T08:33:30;22.00;59.10
48648;DHT22;34437;-33.956;151.076;2023-05-02T08:35:53;22.00;59.10
48648;DHT22;34437;-33.956;151.076;2023-05-02T08:38:15;22.00;59.10
48648;DHT22;34437;-33.956;151.076;2023-05-02T08:40:38;22.00;59.10
48648;DHT22;34437;-33.956;151.076;2023-05-02T08:43:01;21.90;59.00
48648;DHT22;34437;-33.956;151.076;2023-05-02T08:45:24;21.90;59.00
48648;DHT22;34437;-33.956;151.076;2023-05-02T08:47:47;21.90;59.00
48648;DHT22;34437;-33.956;151.076;2023-05-02T08:50:10;21.90;58.90
48648;DHT22;34437;-33.956;151.076;2023-05-02T08:52:34;21.90;58.80
48648;DHT22;34437;-33.956;151.076;2023-05-02T08:54:57;21.90;58.80
48648;DHT22;34437;-33.956;151.076;2023-05-02T08:57:21;21.80;59.10
48648;DHT22;34437;-33.956;151.076;2023-05-02T08:59:44;21.80;59.20
48648;DHT22;34437;-33.956;151.076;2023-05-02T09:04:44;21.80;59.10
48648;DHT22;34437;-33.956;151.076;2023-05-02T09:07:10;21.70;59.00
48648;DHT22;34437;-33.956;151.076;2023-05-02T09:09:33;21.70;59.00
48648;DHT22;34437;-33.956;151.076;2023-05-02T09:11:56;21.70;59.00
48648;DHT22;34437;-33.956;151.076;2023-05-02T09:14:18;21.70;59.00
48648;DHT22;34437;-33.956;151.076;2023-05-02T09:16:41;21.70;59.10
48648;DHT22;34437;-33.956;151.076;2023-05-02T09:19:04;21.70;59.00
48648;DHT22;34437;-33.956;151.076;2023-05-02T09:21:35;21.60;59.00
48648;DHT22;34437;-33.956;151.076;2023-05-02T09:23:58;21.60;58.90
48648;DHT22;34437;-33.956;151.076;2023-05-02T09:26:25;21.60;58.90
48648;DHT22;34437;-33.956;151.076;2023-05-02T09:28:54;21.60;58.90
48648;DHT22;34437;-33.956;151.076;2023-05-02T09:31:19;21.60;58.90
48648;DHT22;34437;-33.956;151.076;2023-05-02T09:33:42;21.60;58.90
48648;DHT22;34437;-33.956;151.076;2023-05-02T09:36:06;21.50;58.80
48648;DHT22;34437;-33.956;151.076;2023-05-02T09:38:29;21.50;58.80
48648;DHT22;34437;-33.956;151.076;2023-05-02T09:40:54;21.50;58.80
48648;DHT22;34437;-33.956;151.076;2023-05-02T09:43:17;21.50;58.90
48648;DHT22;34437;-33.956;151.076;2023-05-02T09:45:39;21.50;58.80
48648;DHT22;34437;-33.956;151.076;2023-05-02T09:48:02;21.50;58.80
48648;DHT22;34437;-33.956;151.076;2023-05-02T09:50:37;21.40;58.80
48648;DHT22;34437;-33.956;151.076;2023-05-02T09:53:04;21.40;58.80
48648;DHT22;34437;-33.956;151.076;2023-05-02T09:55:27;21.40;58.80
48648;DHT22;34437;-33.956;151.076;2023-05-02T09:57:49;21.40;58.80
48648;DHT22;34437;-33.956;151.076;2023-05-02T10:00:12;21.40;58.80
48648;DHT22;34437;-33.956;151.076;2023-05-02T10:02:38;21.40;58.70
48648;DHT22;34437;-33.956;151.076;2023-05-02T10:05:03;21.30;58.70
48648;DHT22;34437;-33.956;151.076;2023-05-02T10:07:29;21.30;58.80
48648;DHT22;34437;-33.956;151.076;2023-05-02T10:09:54;21.30;58.70
48648;DHT22;34437;-33.956;151.076;2023-05-02T10:12:22;21.30;58.70
48648;DHT22;34437;-33.956;151.076;2023-05-02T10:14:49;21.30;58.70
48648;DHT22;34437;-33.956;151.076;2023-05-02T10:17:29;21.30;58.70
48648;DHT22;34437;-33.956;151.076;2023-05-02T10:19:56;21.20;58.70
48648;DHT22;34437;-33.956;151.076;2023-05-02T10:22:22;21.20;58.80
48648;DHT22;34437;-33.956;151.076;2023-05-02T10:24:48;21.20;58.80
48648;DHT22;34437;-33.956;151.076;2023-05-02T10:27:11;21.20;58.90
48648;DHT22;34437;-33.956;151.076;2023-05-02T10:29:34;21.20;58.90
48648;DHT22;34437;-33.956;151.076;2023-05-02T10:31:57;21.20;58.90
48648;DHT22;34437;-33.956;151.076;2023-05-02T10:34:22;21.10;59.00
48648;DHT22;34437;-33.956;151.076;2023-05-02T10:36:45;21.20;59.00
48648;DHT22;34437;-33.956;151.076;2023-05-02T10:39:07;21.10;58.90
48648;DHT22;34437;-33.956;151.076;2023-05-02T10:41:32;21.10;59.10
48648;DHT22;34437;-33.956;151.076;2023-05-02T10:43:55;21.10;58.80
48648;DHT22;34437;-33.956;151.076;2023-05-02T10:51:27;21.00;58.90
48648;DHT22;34437;-33.956;151.076;2023-05-02T10:53:50;21.00;58.90
48648;DHT22;34437;-33.956;151.076;2023-05-02T10:56:22;21.00;58.80
48648;DHT22;34437;-33.956;151.076;2023-05-02T10:58:51;21.00;58.90
48648;DHT22;34437;-33.956;151.076;2023-05-02T11:03:58;21.00;58.90
48648;DHT22;34437;-33.956;151.076;2023-05-02T11:06:21;21.00;58.80
48648;DHT22;34437;-33.956;151.076;2023-05-02T11:08:43;21.00;58.70
48648;DHT22;34437;-33.956;151.076;2023-05-02T11:11:41;21.00;58.70
48648;DHT22;34437;-33.956;151.076;2023-05-02T11:14:04;21.00;58.80
48648;DHT22;34437;-33.956;151.076;2023-05-02T11:16:26;20.90;58.80
48648;DHT22;34437;-33.956;151.076;2023-05-02T11:18:59;20.90;58.60
48648;DHT22;34437;-33.956;151.076;2023-05-02T11:21:29;20.90;58.70
48648;DHT22;34437;-33.956;151.076;2023-05-02T11:26:54;20.90;58.60
48648;DHT22;34437;-33.956;151.076;2023-05-02T11:32:19;20.90;58.60
48648;DHT22;34437;-33.956;151.076;2023-05-02T11:34:42;20.90;58.70
48648;DHT22;34437;-33.956;151.076;2023-05-02T11:37:14;20.80;58.60
48648;DHT22;34437;-33.956;151.076;2023-05-02T11:39:37;20.80;58.50
48648;DHT22;34437;-33.956;151.076;2023-05-02T11:41:59;20.80;58.60
48648;DHT22;34437;-33.956;151.076;2023-05-02T11:44:22;20.80;58.60
48648;DHT22;34437;-33.956;151.076;2023-05-02T11:46:44;20.80;58.60
48648;DHT22;34437;-33.956;151.076;2023-05-02T11:49:07;20.80;58.50
48648;DHT22;34437;-33.956;151.076;2023-05-02T11:51:30;20.80;58.50
48648;DHT22;34437;-33.956;151.076;2023-05-02T11:53:53;20.70;58.40
48648;DHT22;34437;-33.956;151.076;2023-05-02T11:56:15;20.70;58.40
48648;DHT22;34437;-33.956;151.076;2023-05-02T11:58:44;20.70;58.50
48648;DHT22;34437;-33.956;151.076;2023-05-02T12:01:14;20.70;58.50
48648;DHT22;34437;-33.956;151.076;2023-05-02T12:03:37;20.70;58.50
48648;DHT22;34437;-33.956;151.076;2023-05-02T12:06:13;20.70;58.60
48648;DHT22;34437;-33.956;151.076;2023-05-02T12:08:37;20.70;58.50
48648;DHT22;34437;-33.956;151.076;2023-05-02T12:11:01;20.60;58.50
48648;DHT22;34437;-33.956;151.076;2023-05-02T12:13:24;20.60;58.60
48648;DHT22;34437;-33.956;151.076;2023-05-02T12:15:47;20.60;59.00
48648;DHT22;34437;-33.956;151.076;2023-05-02T12:18:10;20.60;59.30
48648;DHT22;34437;-33.956;151.076;2023-05-02T12:20:33;20.60;59.50
48648;DHT22;34437;-33.956;151.076;2023-05-02T12:22:56;20.60;59.60
48648;DHT22;34437;-33.956;151.076;2023-05-02T12:25:18;20.60;59.60
48648;DHT22;34437;-33.956;151.076;2023-05-02T12:27:41;20.60;59.70
48648;DHT22;34437;-33.956;151.076;2023-05-02T12:30:03;20.60;59.60
48648;DHT22;34437;-33.956;151.076;2023-05-02T12:32:31;20.60;59.80
48648;DHT22;34437;-33.956;151.076;2023-05-02T12:34:54;20.70;60.00
48648;DHT22;34437;-33.956;151.076;2023-05-02T12:37:25;20.70;60.20
48648;DHT22;34437;-33.956;151.076;2023-05-02T12:39:50;20.70;60.20
48648;DHT22;34437;-33.956;151.076;2023-05-02T12:42:20;20.60;60.10
48648;DHT22;34437;-33.956;151.076;2023-05-02T12:44:44;20.60;60.10
48648;DHT22;34437;-33.956;151.076;2023-05-02T12:47:11;20.60;60.20
48648;DHT22;34437;-33.956;151.076;2023-05-02T12:49:48;20.60;60.60
48648;DHT22;34437;-33.956;151.076;2023-05-02T12:52:11;20.60;60.60
48648;DHT22;34437;-33.956;151.076;2023-05-02T12:54:33;20.70;60.70
48648;DHT22;34437;-33.956;151.076;2023-05-02T12:56:56;20.70;60.70
48648;DHT22;34437;-33.956;151.076;2023-05-02T12:59:30;20.70;60.80
48648;DHT22;34437;-33.956;151.076;2023-05-02T13:01:52;20.70;61.00
48648;DHT22;34437;-33.956;151.076;2023-05-02T13:04:15;20.70;61.30
48648;DHT22;34437;-33.956;151.076;2023-05-02T13:06:37;20.70;61.40
48648;DHT22;34437;-33.956;151.076;2023-05-02T13:09:01;20.70;61.60
48648;DHT22;34437;-33.956;151.076;2023-05-02T13:11:23;20.70;61.20
48648;DHT22;34437;-33.956;151.076;2023-05-02T13:13:46;20.70;61.20
48648;DHT22;34437;-33.956;151.076;2023-05-02T13:16:08;20.70;61.30
48648;DHT22;34437;-33.956;151.076;2023-05-02T13:18:31;20.70;61.30
48648;DHT22;34437;-33.956;151.076;2023-05-02T13:20:53;20.70;61.30
48648;DHT22;34437;-33.956;151.076;2023-05-02T13:23:16;20.70;61.30
48648;DHT22;34437;-33.956;151.076;2023-05-02T13:25:38;20.60;61.40
48648;DHT22;34437;-33.956;151.076;2023-05-02T13:28:01;20.70;61.40
48648;DHT22;34437;-33.956;151.076;2023-05-02T13:30:23;20.60;61.50
48648;DHT22;34437;-33.956;151.076;2023-05-02T13:32:46;20.70;61.60
48648;DHT22;34437;-33.956;151.076;2023-05-02T13:35:08;20.70;61.70
48648;DHT22;34437;-33.956;151.076;2023-05-02T13:37:34;20.70;61.80
48648;DHT22;34437;-33.956;151.076;2023-05-02T13:39:56;20.70;62.00
48648;DHT22;34437;-33.956;151.076;2023-05-02T13:42:19;20.70;61.90
48648;DHT22;34437;-33.956;151.076;2023-05-02T13:44:41;20.60;61.90
48648;DHT22;34437;-33.956;151.076;2023-05-02T13:47:04;20.60;61.80
48648;DHT22;34437;-33.956;151.076;2023-05-02T13:49:27;20.60;61.70
48648;DHT22;34437;-33.956;151.076;2023-05-02T13:51:49;20.60;61.70
48648;DHT22;34437;-33.956;151.076;2023-05-02T13:54:12;20.60;61.80
48648;DHT22;34437;-33.956;151.076;2023-05-02T13:56:34;20.60;61.90
48648;DHT22;34437;-33.956;151.076;2023-05-02T13:58:57;20.60;61.80
48648;DHT22;34437;-33.956;151.076;2023-05-02T14:01:20;20.60;61.70
48648;DHT22;34437;-33.956;151.076;2023-05-02T14:03:42;20.60;61.70
48648;DHT22;34437;-33.956;151.076;2023-05-02T14:06:05;20.60;61.80
48648;DHT22;34437;-33.956;151.076;2023-05-02T14:08:28;20.60;61.80
48648;DHT22;34437;-33.956;151.076;2023-05-02T14:10:50;20.60;61.70
48648;DHT22;34437;-33.956;151.076;2023-05-02T14:13:13;20.50;61.70
48648;DHT22;34437;-33.956;151.076;2023-05-02T14:15:35;20.50;61.70
48648;DHT22;34437;-33.956;151.076;2023-05-02T14:17:58;20.50;62.10
48648;DHT22;34437;-33.956;151.076;2023-05-02T14:20:20;20.50;61.80
48648;DHT22;34437;-33.956;151.076;2023-05-02T14:22:44;20.50;61.90
48648;DHT22;34437;-33.956;151.076;2023-05-02T14:25:06;20.50;62.00
48648;DHT22;34437;-33.956;151.076;2023-05-02T14:27:29;20.50;61.90
48648;DHT22;34437;-33.956;151.076;2023-05-02T14:29:51;20.40;61.90
48648;DHT22;34437;-33.956;151.076;2023-05-02T14:32:14;20.40;61.90
48648;DHT22;34437;-33.956;151.076;2023-05-02T14:34:36;20.40;61.80
48648;DHT22;34437;-33.956;151.076;2023-05-02T14:36:59;20.40;61.80
48648;DHT22;34437;-33.956;151.076;2023-05-02T14:39:21;20.40;61.80
48648;DHT22;34437;-33.956;151.076;2023-05-02T14:41:44;20.40;61.90
48648;DHT22;34437;-33.956;151.076;2023-05-02T14:44:06;20.40;62.00
48648;DHT22;34437;-33.956;151.076;2023-05-02T14:46:29;20.30;62.00
48648;DHT22;34437;-33.956;151.076;2023-05-02T14:48:51;20.30;62.00
48648;DHT22;34437;-33.956;151.076;2023-05-02T14:51:14;20.30;61.90
48648;DHT22;34437;-33.956;151.076;2023-05-02T14:53:37;20.30;62.00
48648;DHT22;34437;-33.956;151.076;2023-05-02T14:56:00;20.30;62.70
48648;DHT22;34437;-33.956;151.076;2023-05-02T14:58:22;20.30;62.20
48648;DHT22;34437;-33.956;151.076;2023-05-02T15:00:45;20.30;62.10